createdAt,value
2018-09-18T00:00:02.131Z,20.80
2018-09-18T00:02:36.460Z,20.70
2018-09-18T00:05:10.779Z,20.40
2018-09-18T00:07:45.015Z,20.60
2018-09-18T00:10:19.224Z,20.70
2018-09-18T00:12:53.465Z,20.70
2018-09-18T00:15:27.812Z,20.50
2018-09-18T00:18:02.085Z,20.30
2018-09-18T00:20:36.295Z,20.50
2018-09-18T00:23:10.564Z,20.30
2018-09-18T00:25:44.852Z,20.50
2018-09-18T00:28:19.160Z,20.60
2018-09-18T00:30:53.479Z,20.70
2018-09-18T00:33:27.664Z,20.70
2018-09-18T00:36:02.082Z,21.00
2018-09-18T00:38:36.247Z,21.10
2018-09-18T00:41:10.508Z,21.20
2018-09-18T00:43:44.663Z,21.20
2018-09-18T00:46:18.963Z,21.30
2018-09-18T00:48:53.248Z,21.10
2018-09-18T00:51:27.616Z,20.90
2018-09-18T00:54:01.935Z,20.70
2018-09-18T00:56:36.284Z,20.60
2018-09-18T00:59:10.495Z,20.60
2018-09-18T01:01:44.736Z,20.50
2018-09-18T01:04:19.097Z,20.40
2018-09-18T01:06:53.456Z,20.50
2018-09-18T01:09:27.804Z,20.60
2018-09-18T01:12:02.119Z,20.50
2018-09-18T01:14:37.112Z,20.30
2018-09-18T01:17:11.295Z,20.30
2018-09-18T01:19:45.712Z,20.30
2018-09-18T01:22:20.057Z,20.20
2018-09-18T01:24:54.413Z,20.20
2018-09-18T01:27:28.731Z,20.30
2018-09-18T01:30:03.031Z,20.30
2018-09-18T01:32:37.248Z,20.30
2018-09-18T01:35:11.593Z,20.20
2018-09-18T01:37:45.810Z,20.40
2018-09-18T01:40:20.083Z,20.40
2018-09-18T01:42:54.387Z,20.30
2018-09-18T01:45:28.718Z,20.50
2018-09-18T01:48:03.211Z,20.40
2018-09-18T01:50:37.555Z,20.60
2018-09-18T01:53:12.489Z,20.50
2018-09-18T01:55:46.919Z,20.60
2018-09-18T01:58:21.277Z,20.60
2018-09-18T02:00:55.512Z,20.80
2018-09-18T02:03:29.829Z,20.70
2018-09-18T02:06:04.056Z,20.60
2018-09-18T02:08:38.276Z,20.60
2018-09-18T02:11:12.691Z,20.60
2018-09-18T02:13:46.856Z,20.30
2018-09-18T02:16:21.140Z,20.40
2018-09-18T02:18:55.455Z,20.30
2018-09-18T02:21:29.776Z,20.30
2018-09-18T02:24:03.989Z,20.20
2018-09-18T02:26:38.331Z,20.10
2018-09-18T02:29:12.555Z,20.00
2018-09-18T02:31:46.767Z,19.90
2018-09-18T02:34:20.959Z,20.10
2018-09-18T02:36:55.184Z,20.10
2018-09-18T02:39:29.444Z,20.30
2018-09-18T02:42:03.595Z,20.40
2018-09-18T02:44:37.932Z,20.20
2018-09-18T02:47:12.252Z,20.10
2018-09-18T02:49:46.628Z,20.20
2018-09-18T02:52:20.967Z,20.30
2018-09-18T02:54:55.203Z,20.20
2018-09-18T02:57:29.514Z,20.20
2018-09-18T03:00:03.912Z,20.40
2018-09-18T03:02:38.115Z,20.40
2018-09-18T03:05:12.316Z,20.70
2018-09-18T03:07:46.628Z,20.70
2018-09-18T03:10:20.825Z,20.70
2018-09-18T03:12:55.065Z,20.80
2018-09-18T03:15:29.427Z,20.70
2018-09-18T03:18:03.620Z,20.80
2018-09-18T03:20:37.992Z,20.70
2018-09-18T03:23:12.352Z,20.60
2018-09-18T03:25:46.663Z,20.50
2018-09-18T03:28:20.921Z,20.60
2018-09-18T03:30:55.253Z,20.50
2018-09-18T03:33:29.676Z,20.60
2018-09-18T03:36:04.204Z,20.50
2018-09-18T03:38:38.483Z,20.40
2018-09-18T03:41:12.712Z,20.60
2018-09-18T03:43:47.024Z,20.70
2018-09-18T03:46:21.273Z,20.80
2018-09-18T03:48:55.900Z,20.90
2018-09-18T03:51:30.108Z,21.00
2018-09-18T03:54:04.731Z,20.80
2018-09-18T03:56:39.043Z,20.90
2018-09-18T03:59:13.244Z,21.00
2018-09-18T04:01:47.468Z,21.00
2018-09-18T04:04:21.781Z,21.20
2018-09-18T04:06:56.336Z,21.20
2018-09-18T04:09:30.560Z,21.20
2018-09-18T04:12:04.861Z,21.30
2018-09-18T04:14:39.293Z,21.30
2018-09-18T04:17:13.702Z,21.40
2018-09-18T04:19:47.945Z,21.40
2018-09-18T04:22:22.311Z,21.40
2018-09-18T04:24:56.677Z,21.40
2018-09-18T04:27:30.987Z,21.40
2018-09-18T04:30:05.303Z,21.40
2018-09-18T04:32:39.581Z,21.40
2018-09-18T04:35:13.896Z,21.40
2018-09-18T04:37:48.282Z,21.40
2018-09-18T04:40:22.533Z,21.40
2018-09-18T04:42:56.970Z,21.40
2018-09-18T04:45:31.256Z,21.40
2018-09-18T04:48:05.733Z,21.40
2018-09-18T04:50:40.065Z,21.40
2018-09-18T04:53:14.343Z,21.40
2018-09-18T04:55:48.528Z,21.40
2018-09-18T04:58:22.889Z,21.40
2018-09-18T05:00:57.291Z,21.40
2018-09-18T05:03:31.845Z,21.40
2018-09-18T05:06:06.459Z,21.40
2018-09-18T05:08:40.729Z,21.40
2018-09-18T05:11:15.076Z,21.40
2018-09-18T05:13:49.402Z,21.40
2018-09-18T05:16:23.749Z,21.40
2018-09-18T05:18:58.016Z,21.40
2018-09-18T05:21:32.295Z,21.30
2018-09-18T05:24:06.717Z,21.40
2018-09-18T05:26:41.232Z,21.40
2018-09-18T05:29:15.549Z,21.40
2018-09-18T05:31:49.924Z,21.40
2018-09-18T05:34:24.211Z,21.40
2018-09-18T05:36:58.596Z,21.40
2018-09-18T05:39:32.877Z,21.40
2018-09-18T05:42:07.278Z,21.40
2018-09-18T05:44:41.402Z,21.40
2018-09-18T05:47:15.736Z,21.40
2018-09-18T05:49:50.176Z,21.40
2018-09-18T05:52:24.492Z,21.40
2018-09-18T05:54:58.799Z,21.40
2018-09-18T05:57:33.191Z,21.40
2018-09-18T06:00:07.639Z,21.40
2018-09-18T06:02:41.960Z,21.40
2018-09-18T06:05:16.285Z,19.30
2018-09-18T06:07:50.492Z,18.40
2018-09-18T06:10:25.273Z,17.60
2018-09-18T06:12:59.487Z,17.20
2018-09-18T06:15:33.681Z,17.10
2018-09-18T06:18:08.085Z,17.20
2018-09-18T06:20:42.908Z,17.00
2018-09-18T06:23:17.372Z,16.90
2018-09-18T06:25:51.606Z,16.90
2018-09-18T06:28:25.904Z,16.90
2018-09-18T06:31:00.192Z,16.90
2018-09-18T06:33:34.399Z,16.90
2018-09-18T06:36:08.600Z,17.00
2018-09-18T06:38:43.056Z,17.30
2018-09-18T06:41:17.333Z,17.70
2018-09-18T06:43:51.732Z,18.50
2018-09-18T06:46:25.960Z,18.70
2018-09-18T06:49:00.324Z,18.50
2018-09-18T06:51:34.652Z,18.50
2018-09-18T06:54:08.828Z,18.90
2018-09-18T06:56:43.175Z,19.40
2018-09-18T06:59:17.499Z,19.40
2018-09-18T07:01:52.024Z,19.20
2018-09-18T07:04:26.204Z,19.30
2018-09-18T07:07:00.573Z,19.50
2018-09-18T07:09:34.856Z,19.70
2018-09-18T07:12:09.195Z,20.30
2018-09-18T07:14:44.052Z,20.70
2018-09-18T07:17:18.319Z,20.90
2018-09-18T07:19:52.479Z,20.80
2018-09-18T07:22:26.795Z,20.70
2018-09-18T07:25:01.185Z,20.50
2018-09-18T07:27:35.724Z,20.50
2018-09-18T07:30:10.392Z,20.80
2018-09-18T07:32:44.784Z,21.30
2018-09-18T07:35:19.080Z,21.50
2018-09-18T07:37:53.331Z,21.80
2018-09-18T07:40:27.500Z,21.90
2018-09-18T07:43:01.777Z,22.20
2018-09-18T07:45:36.059Z,22.10
2018-09-18T07:48:10.377Z,22.30
2018-09-18T07:50:45.167Z,22.60
2018-09-18T07:53:19.335Z,23.10
2018-09-18T07:55:53.657Z,23.20
2018-09-18T07:58:28.160Z,23.20
2018-09-18T08:01:02.580Z,23.40
2018-09-18T08:03:36.857Z,23.80
2018-09-18T08:06:11.177Z,24.10
2018-09-18T08:08:46.148Z,24.40
2018-09-18T08:11:20.461Z,24.30
2018-09-18T08:13:54.748Z,24.60
2018-09-18T08:16:29.064Z,24.70
2018-09-18T08:19:03.496Z,24.80
2018-09-18T08:21:37.763Z,25.10
2018-09-18T08:24:12.004Z,25.30
2018-09-18T08:26:46.340Z,25.20
2018-09-18T08:29:20.592Z,25.60
2018-09-18T08:31:54.960Z,25.60
2018-09-18T08:34:29.268Z,26.10
2018-09-18T08:37:03.585Z,26.00
2018-09-18T08:39:37.958Z,26.20
2018-09-18T08:42:12.314Z,26.40
2018-09-18T08:44:46.846Z,26.70
2018-09-18T08:47:21.084Z,26.60
2018-09-18T08:49:55.221Z,26.80
2018-09-18T08:52:29.608Z,26.90
2018-09-18T08:55:03.981Z,27.10
2018-09-18T08:57:38.205Z,26.90
2018-09-18T09:00:12.481Z,26.70
2018-09-18T09:02:47.320Z,26.80
2018-09-18T09:05:21.515Z,27.10
2018-09-18T09:07:55.920Z,27.20
2018-09-18T09:10:30.183Z,27.40
2018-09-18T09:13:04.413Z,27.40
2018-09-18T09:15:38.766Z,27.50
2018-09-18T09:18:12.912Z,27.50
2018-09-18T09:20:47.255Z,27.60
2018-09-18T09:23:21.540Z,27.60
2018-09-18T09:25:55.728Z,27.80
2018-09-18T09:28:30.016Z,27.90
2018-09-18T09:31:04.416Z,28.00
2018-09-18T09:33:38.718Z,28.00
2018-09-18T09:36:12.988Z,28.00
2018-09-18T09:38:47.422Z,28.00
2018-09-18T09:41:21.717Z,28.30
2018-09-18T09:43:56.068Z,28.30
2018-09-18T09:46:30.400Z,28.40
2018-09-18T09:49:04.784Z,28.50
2018-09-18T09:51:39.128Z,28.60
2018-09-18T09:54:13.416Z,28.30
2018-09-18T09:56:47.778Z,27.80
2018-09-18T09:59:22.001Z,28.00
2018-09-18T10:02:01.810Z,27.90
2018-09-18T10:04:36.124Z,27.90
2018-09-18T10:07:10.304Z,28.50
2018-09-18T10:09:44.604Z,28.20
2018-09-18T10:12:18.765Z,28.50
2018-09-18T10:14:53.073Z,28.80
2018-09-18T10:17:27.485Z,28.80
2018-09-18T10:20:01.648Z,28.80
2018-09-18T10:22:36.128Z,28.70
2018-09-18T10:25:10.444Z,28.40
2018-09-18T10:27:44.792Z,28.60
2018-09-18T10:30:19.089Z,28.60
2018-09-18T10:32:53.314Z,28.10
2018-09-18T10:35:27.547Z,28.50
2018-09-18T10:38:01.852Z,28.80
2018-09-18T10:40:36.159Z,28.60
2018-09-18T10:43:10.819Z,28.20
2018-09-18T10:45:45.121Z,28.40
2018-09-18T10:48:19.487Z,28.30
2018-09-18T10:50:53.852Z,29.10
2018-09-18T10:53:28.140Z,29.20
2018-09-18T10:56:02.539Z,28.90
2018-09-18T10:58:36.770Z,28.80
2018-09-18T11:01:11.304Z,28.60
2018-09-18T11:03:45.631Z,28.40
2018-09-18T11:06:19.900Z,28.60
2018-09-18T11:08:54.267Z,28.70
2018-09-18T11:11:28.537Z,28.80
2018-09-18T11:14:06.084Z,28.40
2018-09-18T11:16:40.873Z,28.20
2018-09-18T11:19:15.179Z,28.20
2018-09-18T11:21:49.423Z,28.40
2018-09-18T11:24:23.791Z,28.50
2018-09-18T11:26:57.926Z,28.70
2018-09-18T11:29:32.243Z,28.70
2018-09-18T11:32:06.539Z,29.10
2018-09-18T11:34:40.812Z,28.80
2018-09-18T11:37:15.144Z,28.50
2018-09-18T11:39:49.672Z,28.40
2018-09-18T11:42:24.000Z,28.20
2018-09-18T11:44:58.312Z,28.30
2018-09-18T11:47:32.484Z,27.90
2018-09-18T11:50:06.779Z,28.00
2018-09-18T11:52:41.181Z,28.80
2018-09-18T11:55:15.409Z,29.10
2018-09-18T11:57:49.827Z,29.20
2018-09-18T12:00:24.012Z,28.80
2018-09-18T12:02:58.398Z,28.70
2018-09-18T12:05:32.706Z,28.40
2018-09-18T12:08:06.996Z,28.70
2018-09-18T12:10:41.233Z,28.40
2018-09-18T12:13:15.468Z,28.40
2018-09-18T12:15:49.659Z,28.30
2018-09-18T12:18:23.873Z,28.20
2018-09-18T12:20:58.174Z,27.90
2018-09-18T12:23:32.687Z,27.70
2018-09-18T12:26:06.931Z,27.90
2018-09-18T12:28:41.187Z,27.60
2018-09-18T12:31:15.660Z,27.80
2018-09-18T12:33:49.991Z,28.30
2018-09-18T12:36:24.157Z,28.30
2018-09-18T12:38:59.769Z,28.20
2018-09-18T12:41:34.806Z,28.20
2018-09-18T12:44:09.541Z,28.00
2018-09-18T12:46:43.783Z,28.20
2018-09-18T12:49:19.261Z,27.90
2018-09-18T12:51:54.551Z,28.30
2018-09-18T12:54:29.727Z,27.90
2018-09-18T12:57:05.422Z,28.00
2018-09-18T12:59:40.119Z,27.90
2018-09-18T13:02:14.446Z,27.80
2018-09-18T13:04:48.712Z,27.50
2018-09-18T13:07:23.014Z,27.50
2018-09-18T13:09:57.373Z,27.70
2018-09-18T13:12:31.688Z,27.80
2018-09-18T13:15:06.397Z,27.50
2018-09-18T13:17:40.661Z,28.00
2018-09-18T13:20:14.786Z,27.70
2018-09-18T13:22:49.160Z,27.80
2018-09-18T13:25:23.445Z,27.60
2018-09-18T13:27:57.798Z,27.30
2018-09-18T13:30:32.135Z,27.50
2018-09-18T13:33:06.276Z,27.80
2018-09-18T13:35:40.561Z,27.60
2018-09-18T13:38:14.864Z,27.50
2018-09-18T13:40:49.078Z,28.10
2018-09-18T13:43:23.308Z,27.80
2018-09-18T13:45:57.525Z,28.10
2018-09-18T13:48:31.836Z,27.90
2018-09-18T13:51:06.073Z,27.70
2018-09-18T13:53:40.213Z,27.80
2018-09-18T13:56:14.529Z,27.80
2018-09-18T13:58:48.900Z,27.50
2018-09-18T14:01:23.279Z,27.50
2018-09-18T14:03:57.569Z,27.60
2018-09-18T14:06:31.832Z,27.40
2018-09-18T14:09:07.224Z,28.00
2018-09-18T14:11:41.442Z,28.30
2018-09-18T14:14:15.775Z,27.90
2018-09-18T14:16:49.980Z,28.30
2018-09-18T14:19:24.192Z,28.30
2018-09-18T14:21:59.140Z,27.70
2018-09-18T14:24:33.348Z,27.70
2018-09-18T14:27:07.851Z,27.70
2018-09-18T14:29:42.160Z,28.00
2018-09-18T14:32:16.344Z,27.70
2018-09-18T14:34:51.157Z,27.50
2018-09-18T14:37:25.260Z,27.50
2018-09-18T14:39:59.512Z,27.50
2018-09-18T14:42:33.682Z,27.70
2018-09-18T14:45:08.045Z,28.00
2018-09-18T14:47:42.267Z,28.00
2018-09-18T14:50:16.652Z,27.70
2018-09-18T14:52:50.833Z,27.60
2018-09-18T14:55:25.115Z,27.50
2018-09-18T14:57:59.472Z,27.40
2018-09-18T15:00:33.772Z,27.60
2018-09-18T15:03:07.947Z,27.30
2018-09-18T15:05:42.268Z,27.30
2018-09-18T15:08:16.604Z,27.30
2018-09-18T15:10:51.040Z,27.30
2018-09-18T15:13:25.240Z,27.10
2018-09-18T15:15:59.424Z,27.20
2018-09-18T15:18:33.668Z,27.10
2018-09-18T15:21:07.960Z,27.50
2018-09-18T15:23:42.336Z,27.40
2018-09-18T15:26:16.640Z,27.60
2018-09-18T15:28:51.078Z,27.30
2018-09-18T15:31:25.416Z,27.20
2018-09-18T15:33:59.737Z,27.30
2018-09-18T15:36:34.085Z,27.10
2018-09-18T15:39:08.955Z,27.10
2018-09-18T15:41:43.298Z,27.00
2018-09-18T15:44:17.652Z,27.10
2018-09-18T15:46:51.938Z,26.90
2018-09-18T15:49:26.150Z,26.90
2018-09-18T15:52:00.447Z,26.80
2018-09-18T15:54:34.808Z,27.10
2018-09-18T15:57:09.121Z,27.00
2018-09-18T15:59:43.347Z,27.00
2018-09-18T16:02:17.524Z,27.10
2018-09-18T16:04:51.791Z,27.00
2018-09-18T16:07:26.010Z,27.00
2018-09-18T16:10:00.409Z,26.90
2018-09-18T16:12:34.712Z,26.90
2018-09-18T16:15:09.063Z,26.80
2018-09-18T16:17:43.328Z,26.70
2018-09-18T16:20:17.624Z,26.80
2018-09-18T16:22:51.956Z,26.70
2018-09-18T16:25:26.273Z,26.60
2018-09-18T16:28:00.560Z,26.60
2018-09-18T16:30:34.773Z,26.60
2018-09-18T16:33:09.063Z,26.70
2018-09-18T16:35:43.369Z,26.60
2018-09-18T16:38:17.632Z,26.60
2018-09-18T16:40:51.996Z,26.60
2018-09-18T16:43:26.331Z,26.50
2018-09-18T16:46:00.652Z,26.50
2018-09-18T16:48:34.893Z,26.50
2018-09-18T16:51:09.223Z,26.50
2018-09-18T16:53:43.430Z,26.50
2018-09-18T16:56:17.753Z,26.40
2018-09-18T16:58:52.012Z,26.40
2018-09-18T17:01:26.354Z,26.40
2018-09-18T17:04:00.584Z,26.50
2018-09-18T17:06:34.839Z,26.30
2018-09-18T17:09:09.480Z,26.30
2018-09-18T17:11:43.813Z,26.20
2018-09-18T17:14:18.470Z,26.10
2018-09-18T17:16:52.680Z,26.10
2018-09-18T17:19:27.835Z,26.10
2018-09-18T17:22:02.160Z,26.10
2018-09-18T17:24:36.467Z,26.10
2018-09-18T17:27:10.523Z,26.00
2018-09-18T17:29:44.852Z,26.10
2018-09-18T17:32:19.156Z,25.90
2018-09-18T17:34:53.492Z,25.90
2018-09-18T17:37:27.749Z,26.00
2018-09-18T17:40:02.124Z,25.90
2018-09-18T17:42:36.415Z,25.90
2018-09-18T17:45:10.790Z,25.90
2018-09-18T17:47:45.126Z,25.90
2018-09-18T17:50:19.506Z,25.80
2018-09-18T17:52:53.812Z,25.80
2018-09-18T17:55:28.128Z,25.80
2018-09-18T17:58:02.448Z,25.80
2018-09-18T18:00:36.786Z,25.80
2018-09-18T18:03:11.047Z,25.80
2018-09-18T18:05:45.440Z,25.80
2018-09-18T18:08:19.685Z,25.90
2018-09-18T18:10:53.983Z,25.90
2018-09-18T18:13:28.410Z,25.90
2018-09-18T18:16:02.819Z,25.90
2018-09-18T18:18:37.187Z,25.90
2018-09-18T18:21:11.521Z,25.90
2018-09-18T18:23:45.865Z,25.90
2018-09-18T18:26:20.196Z,25.90
2018-09-18T18:28:54.541Z,25.90
2018-09-18T18:31:28.724Z,25.90
2018-09-18T18:34:02.930Z,25.90
2018-09-18T18:36:37.259Z,25.90
2018-09-18T18:39:11.564Z,25.90
2018-09-18T18:41:45.885Z,25.80
2018-09-18T18:44:20.276Z,25.90
2018-09-18T18:46:54.621Z,25.80
2018-09-18T18:49:33.048Z,25.80
2018-09-18T18:52:07.954Z,25.80
2018-09-18T18:54:42.295Z,25.70
2018-09-18T18:57:16.523Z,25.70
2018-09-18T18:59:50.900Z,25.70
2018-09-18T19:02:25.236Z,25.70
2018-09-18T19:04:59.526Z,25.70
2018-09-18T19:07:33.920Z,25.70
2018-09-18T19:10:08.911Z,25.70
2018-09-18T19:12:43.071Z,25.60
2018-09-18T19:15:17.409Z,25.60
2018-09-18T19:17:51.608Z,25.60
2018-09-18T19:20:25.967Z,25.60
2018-09-18T19:23:00.342Z,25.50
2018-09-18T19:25:34.803Z,25.50
2018-09-18T19:28:09.135Z,25.50
2018-09-18T19:30:43.288Z,25.50
2018-09-18T19:33:17.632Z,25.50
2018-09-18T19:35:51.960Z,25.50
2018-09-18T19:38:26.120Z,25.40
2018-09-18T19:41:00.397Z,25.50
2018-09-18T19:43:34.717Z,25.40
2018-09-18T19:46:09.090Z,25.40
2018-09-18T19:48:43.440Z,25.40
2018-09-18T19:51:17.756Z,25.40
2018-09-18T19:53:52.103Z,25.40
2018-09-18T19:56:26.415Z,25.30
2018-09-18T19:59:00.775Z,25.30
2018-09-18T20:01:35.210Z,25.30
2018-09-18T20:04:09.771Z,25.20
2018-09-18T20:06:44.127Z,25.20
2018-09-18T20:09:18.474Z,25.20
2018-09-18T20:11:52.772Z,25.20
2018-09-18T20:14:26.971Z,25.20
2018-09-18T20:17:01.343Z,25.10
2018-09-18T20:19:35.824Z,25.10
2018-09-18T20:22:10.524Z,25.10
2018-09-18T20:24:44.827Z,25.10
2018-09-18T20:27:19.179Z,25.10
2018-09-18T20:29:53.489Z,25.10
2018-09-18T20:32:27.812Z,25.10
2018-09-18T20:35:02.250Z,25.00
2018-09-18T20:37:36.477Z,25.00
2018-09-18T20:40:10.859Z,25.00
2018-09-18T20:42:45.176Z,25.00
2018-09-18T20:45:19.520Z,25.00
2018-09-18T20:47:53.816Z,25.00
2018-09-18T20:50:28.112Z,24.90
2018-09-18T20:53:02.417Z,24.90
2018-09-18T20:55:36.799Z,24.90
2018-09-18T20:58:11.130Z,24.90
2018-09-18T21:00:45.386Z,24.90
2018-09-18T21:03:19.745Z,24.90
2018-09-18T21:05:54.056Z,24.90
2018-09-18T21:08:28.338Z,24.90
2018-09-18T21:11:02.647Z,24.90
2018-09-18T21:13:36.905Z,24.80
2018-09-18T21:16:11.206Z,24.80
2018-09-18T21:18:45.432Z,24.80
2018-09-18T21:21:19.736Z,24.80
2018-09-18T21:23:54.028Z,24.80
2018-09-18T21:26:28.335Z,24.80
2018-09-18T21:29:02.740Z,24.80
2018-09-18T21:31:37.065Z,24.80
2018-09-18T21:34:11.394Z,24.80
2018-09-18T21:36:45.864Z,24.80
2018-09-18T21:39:20.144Z,24.80
2018-09-18T21:41:54.453Z,24.80
2018-09-18T21:44:28.712Z,24.70
2018-09-18T21:47:03.038Z,24.70
2018-09-18T21:49:37.193Z,24.60
2018-09-18T21:52:11.463Z,24.60
2018-09-18T21:54:45.744Z,24.60
2018-09-18T21:57:19.956Z,24.60
2018-09-18T21:59:54.272Z,24.60
2018-09-18T22:02:28.471Z,24.60
2018-09-18T22:05:02.964Z,24.60
2018-09-18T22:07:37.210Z,24.60
2018-09-18T22:10:11.534Z,24.60
2018-09-18T22:12:45.832Z,24.50
2018-09-18T22:15:19.995Z,24.50
2018-09-18T22:17:54.357Z,24.50
2018-09-18T22:20:28.639Z,24.50
2018-09-18T22:23:02.927Z,24.50
2018-09-18T22:25:37.307Z,24.50
2018-09-18T22:28:11.552Z,24.50
2018-09-18T22:30:45.816Z,24.50
2018-09-18T22:33:20.133Z,24.50
2018-09-18T22:35:54.307Z,24.50
2018-09-18T22:38:28.637Z,24.50
2018-09-18T22:41:02.857Z,24.50
2018-09-18T22:43:37.068Z,24.40
2018-09-18T22:46:11.378Z,24.40
2018-09-18T22:48:45.746Z,24.50
2018-09-18T22:51:20.059Z,24.40
2018-09-18T22:53:54.295Z,24.40
2018-09-18T22:56:28.715Z,24.40
2018-09-18T22:59:03.081Z,24.40
2018-09-18T23:01:37.480Z,24.30
2018-09-18T23:04:11.832Z,24.30
2018-09-18T23:06:46.288Z,24.30
2018-09-18T23:09:20.526Z,24.30
2018-09-18T23:11:54.877Z,24.30
2018-09-18T23:14:29.504Z,24.30
2018-09-18T23:17:03.880Z,24.30
2018-09-18T23:19:38.196Z,24.30
2018-09-18T23:22:12.604Z,24.30
2018-09-18T23:24:47.072Z,24.30
2018-09-18T23:27:21.451Z,24.30
2018-09-18T23:29:55.719Z,24.30
2018-09-18T23:32:30.075Z,24.30
2018-09-18T23:35:04.339Z,24.20
2018-09-18T23:37:38.675Z,24.20
2018-09-18T23:40:13.048Z,24.20
2018-09-18T23:42:47.314Z,24.20
2018-09-18T23:45:21.671Z,24.20
2018-09-18T23:47:55.847Z,24.20
2018-09-18T23:50:30.135Z,24.20
2018-09-18T23:53:04.380Z,24.20
2018-09-18T23:55:38.712Z,24.20
2018-09-18T23:58:13.048Z,24.20
